createdAt,value
2023-01-04T00:00:52.476Z,38.47
2023-01-04T00:03:19.246Z,20.60
2023-01-04T00:05:45.887Z,13.45
2023-01-04T00:08:12.487Z,49.97
2023-01-04T00:10:39.198Z,26.80
2023-01-04T00:13:05.852Z,50.47
2023-01-04T00:15:32.481Z,25.43
2023-01-04T00:17:59.131Z,22.02
2023-01-04T00:20:25.749Z,44.05
2023-01-04T00:22:52.381Z,23.58
2023-01-04T00:25:19.061Z,12.68
2023-01-04T00:27:45.720Z,7.53
2023-01-04T00:30:13.019Z,10.48
2023-01-04T00:32:39.647Z,8.32
2023-01-04T00:35:06.478Z,11.30
2023-01-04T00:37:33.181Z,11.23
2023-01-04T00:39:59.811Z,11.07
2023-01-04T00:42:26.501Z,11.68
2023-01-04T00:44:53.150Z,29.42
2023-01-04T00:47:19.748Z,65.53
2023-01-04T00:49:46.399Z,44.05
2023-01-04T00:52:13.051Z,19.92
2023-01-04T00:54:39.664Z,14.50
2023-01-04T00:57:07.319Z,13.27
2023-01-04T00:59:33.917Z,11.23
2023-01-04T01:02:00.745Z,11.85
2023-01-04T01:04:27.758Z,12.13
2023-01-04T01:06:54.539Z,11.68
2023-01-04T01:09:24.387Z,12.90
2023-01-04T01:11:52.378Z,14.82
2023-01-04T01:14:22.829Z,14.30
2023-01-04T01:16:55.838Z,13.60
2023-01-04T01:19:23.231Z,15.45
2023-01-04T01:21:49.862Z,11.05
2023-01-04T01:24:19.098Z,14.18
2023-01-04T01:26:45.807Z,11.55
2023-01-04T01:29:12.586Z,41.73
2023-01-04T01:31:40.447Z,25.55
2023-01-04T01:34:07.132Z,13.73
2023-01-04T01:36:33.907Z,11.02
2023-01-04T01:39:00.739Z,12.98
2023-01-04T01:41:30.183Z,13.87
2023-01-04T01:44:03.053Z,15.32
2023-01-04T01:46:29.688Z,14.38
2023-01-04T01:49:02.057Z,14.93
2023-01-04T01:51:29.395Z,15.50
2023-01-04T01:54:02.994Z,14.33
2023-01-04T01:56:33.845Z,11.70
2023-01-04T01:59:01.219Z,15.82
2023-01-04T02:01:28.351Z,14.82
2023-01-04T02:03:56.284Z,16.63
2023-01-04T02:06:31.074Z,13.97
2023-01-04T02:08:58.439Z,15.23
2023-01-04T02:11:26.417Z,18.77
2023-01-04T02:14:12.242Z,25.15
2023-01-04T02:17:17.074Z,18.88
2023-01-04T02:20:08.599Z,13.47
2023-01-04T02:23:01.897Z,13.10
2023-01-04T02:25:51.642Z,12.18
2023-01-04T02:28:27.331Z,13.68
2023-01-04T02:31:09.103Z,12.82
2023-01-04T02:33:57.300Z,13.37
2023-01-04T02:36:33.097Z,13.18
2023-01-04T02:39:04.020Z,14.32
2023-01-04T02:41:39.246Z,14.18
2023-01-04T02:44:34.665Z,14.15
2023-01-04T02:47:10.105Z,14.20
2023-01-04T02:50:00.544Z,13.73
2023-01-04T02:52:31.289Z,14.45
2023-01-04T02:54:58.296Z,15.27
2023-01-04T02:57:30.074Z,12.38
2023-01-04T03:00:30.428Z,14.67
2023-01-04T03:03:32.430Z,14.15
2023-01-04T03:06:17.267Z,12.13
2023-01-04T03:09:02.042Z,11.13
2023-01-04T03:11:57.083Z,12.23
2023-01-04T03:14:33.331Z,12.93
2023-01-04T03:17:07.848Z,10.77
2023-01-04T03:19:51.992Z,13.30
2023-01-04T03:22:48.513Z,12.88
2023-01-04T03:25:37.056Z,12.57
2023-01-04T03:28:24.491Z,12.47
2023-01-04T03:31:17.336Z,12.40
2023-01-04T03:34:03.025Z,16.20
2023-01-04T03:36:45.352Z,11.73
2023-01-04T03:40:03.952Z,12.80
2023-01-04T03:43:10.679Z,11.20
2023-01-04T03:46:03.744Z,11.68
2023-01-04T03:48:41.716Z,11.50
2023-01-04T03:51:23.142Z,11.52
2023-01-04T03:54:04.335Z,10.82
2023-01-04T03:56:33.217Z,11.57
2023-01-04T03:59:00.618Z,12.40
2023-01-04T04:01:28.879Z,11.93
2023-01-04T04:04:14.146Z,13.10
2023-01-04T04:06:59.572Z,11.90
2023-01-04T04:09:26.342Z,11.43
2023-01-04T04:11:53.082Z,10.77
2023-01-04T04:14:19.702Z,9.45
2023-01-04T04:16:46.496Z,10.85
2023-01-04T04:19:13.165Z,11.30
2023-01-04T04:21:39.851Z,9.43
2023-01-04T04:24:06.705Z,11.85
2023-01-04T04:26:33.646Z,11.15
2023-01-04T04:29:00.286Z,10.30
2023-01-04T04:31:26.965Z,12.55
2023-01-04T04:33:53.684Z,12.00
2023-01-04T04:36:20.348Z,12.13
2023-01-04T04:38:46.969Z,14.00
2023-01-04T04:41:33.273Z,11.57
2023-01-04T04:43:59.975Z,11.50
2023-01-04T04:46:26.674Z,11.77
2023-01-04T04:48:53.326Z,12.38
2023-01-04T04:51:20.259Z,11.75
2023-01-04T04:53:46.886Z,14.82
2023-01-04T04:56:13.511Z,10.95
2023-01-04T04:58:40.516Z,11.37
2023-01-04T05:01:07.995Z,10.70
2023-01-04T05:03:35.218Z,10.32
2023-01-04T05:06:02.300Z,9.85
2023-01-04T05:08:29.112Z,10.07
2023-01-04T05:10:55.782Z,11.77
2023-01-04T05:13:22.801Z,9.32
2023-01-04T05:15:52.647Z,9.40
2023-01-04T05:18:21.695Z,9.68
2023-01-04T05:20:48.675Z,9.40
2023-01-04T05:23:16.844Z,9.63
2023-01-04T05:25:43.586Z,8.98
2023-01-04T05:28:10.751Z,9.25
2023-01-04T05:30:56.341Z,12.52
2023-01-04T05:33:24.753Z,11.20
2023-01-04T05:35:52.705Z,11.17
2023-01-04T05:38:19.993Z,13.25
2023-01-04T05:40:48.750Z,12.02
2023-01-04T05:43:16.413Z,10.50
2023-01-04T05:45:44.701Z,12.18
2023-01-04T05:48:11.368Z,13.90
2023-01-04T05:50:38.161Z,11.82
2023-01-04T05:53:06.463Z,11.90
2023-01-04T05:55:33.557Z,11.80
2023-01-04T05:58:00.789Z,11.88
2023-01-04T06:00:27.522Z,12.77
2023-01-04T06:02:55.501Z,13.07
2023-01-04T06:05:23.033Z,13.68
2023-01-04T06:07:49.704Z,11.55
2023-01-04T06:10:16.384Z,11.05
2023-01-04T06:12:43.180Z,11.23
2023-01-04T06:15:11.150Z,10.20
2023-01-04T06:17:38.977Z,10.55
2023-01-04T06:20:09.396Z,10.75
2023-01-04T06:22:36.957Z,8.63
2023-01-04T06:25:04.568Z,9.90
2023-01-04T06:27:31.200Z,9.98
2023-01-04T06:29:57.870Z,9.48
2023-01-04T06:32:24.553Z,8.95
2023-01-04T06:34:51.278Z,9.95
2023-01-04T06:37:18.031Z,9.00
2023-01-04T06:39:44.711Z,7.93
2023-01-04T06:42:31.285Z,9.82
2023-01-04T06:44:58.037Z,10.35
2023-01-04T06:47:24.725Z,10.32
2023-01-04T06:49:51.578Z,9.13
2023-01-04T06:52:18.360Z,8.90
2023-01-04T06:54:45.050Z,9.18
2023-01-04T06:57:12.180Z,9.30
2023-01-04T06:59:38.853Z,10.35
2023-01-04T07:02:05.697Z,9.10
2023-01-04T07:04:32.539Z,10.15
2023-01-04T07:06:59.193Z,10.73
2023-01-04T07:09:25.839Z,9.98
2023-01-04T07:11:52.531Z,11.05
2023-01-04T07:14:19.116Z,10.00
2023-01-04T07:16:45.904Z,23.30
2023-01-04T07:19:12.568Z,25.05
2023-01-04T07:21:39.241Z,23.23
2023-01-04T07:24:05.961Z,12.82
2023-01-04T07:26:33.939Z,11.20
2023-01-04T07:29:15.849Z,10.13
2023-01-04T07:31:51.192Z,10.05
2023-01-04T07:34:20.312Z,9.32
2023-01-04T07:36:48.400Z,8.30
2023-01-04T07:39:17.101Z,9.60
2023-01-04T07:41:44.657Z,9.98
2023-01-04T07:44:12.058Z,9.43
2023-01-04T07:46:38.987Z,8.82
2023-01-04T07:49:11.567Z,9.35
2023-01-04T07:51:41.669Z,9.13
2023-01-04T07:54:10.362Z,9.50
2023-01-04T07:56:37.550Z,9.65
2023-01-04T07:59:08.954Z,10.60
2023-01-04T08:01:38.016Z,9.20
2023-01-04T08:04:06.185Z,8.77
2023-01-04T08:06:33.767Z,11.07
2023-01-04T08:09:00.675Z,9.40
2023-01-04T08:11:27.646Z,10.60
2023-01-04T08:13:54.458Z,9.68
2023-01-04T08:16:32.804Z,7.63
2023-01-04T08:19:02.294Z,6.82
2023-01-04T08:21:31.011Z,8.65
2023-01-04T08:23:57.823Z,17.25
2023-01-04T08:26:24.621Z,8.32
2023-01-04T08:28:51.873Z,8.20
2023-01-04T08:31:22.138Z,8.15
2023-01-04T08:33:50.275Z,7.35
2023-01-04T08:36:27.201Z,7.50
2023-01-04T08:39:01.327Z,6.18
2023-01-04T08:41:56.553Z,8.13
2023-01-04T08:44:24.787Z,6.60
2023-01-04T08:46:53.077Z,5.75
2023-01-04T08:49:20.832Z,6.80
2023-01-04T08:51:48.463Z,5.68
2023-01-04T08:54:15.648Z,7.07
2023-01-04T08:56:42.613Z,5.20
2023-01-04T08:59:11.224Z,5.63
2023-01-04T09:01:39.254Z,5.65
2023-01-04T09:04:06.585Z,6.57
2023-01-04T09:06:33.510Z,6.27
2023-01-04T09:09:00.187Z,6.28
2023-01-04T09:11:27.209Z,6.43
2023-01-04T09:14:06.904Z,5.43
2023-01-04T09:16:36.638Z,5.13
2023-01-04T09:19:03.829Z,6.83
2023-01-04T09:21:30.619Z,5.43
2023-01-04T09:23:58.843Z,8.13
2023-01-04T09:26:25.601Z,7.10
2023-01-04T09:28:53.725Z,6.38
2023-01-04T09:31:26.930Z,6.93
2023-01-04T09:36:41.724Z,6.50
2023-01-04T09:39:13.332Z,6.05
2023-01-04T09:41:59.073Z,7.35
2023-01-04T09:45:03.251Z,7.57
2023-01-04T09:47:40.928Z,7.03
2023-01-04T09:50:16.576Z,5.90
2023-01-04T09:52:56.861Z,6.50
2023-01-04T09:55:40.989Z,6.55
2023-01-04T09:58:23.206Z,6.43
2023-01-04T10:01:01.807Z,8.40
2023-01-04T10:03:33.204Z,7.80
2023-01-04T10:06:01.858Z,5.53
2023-01-04T10:08:31.345Z,6.25
2023-01-04T10:11:30.769Z,6.40
2023-01-04T10:14:15.380Z,6.65
2023-01-04T10:17:12.806Z,6.13
2023-01-04T10:23:10.242Z,7.07
2023-01-04T10:26:01.145Z,5.57
2023-01-04T10:28:56.631Z,6.38
2023-01-04T10:31:42.014Z,5.30
2023-01-04T10:34:25.986Z,8.18
2023-01-04T10:37:10.396Z,7.32
2023-01-04T10:39:37.457Z,6.70
2023-01-04T10:42:14.914Z,5.97
2023-01-04T10:45:08.574Z,6.88
2023-01-04T10:48:18.848Z,6.40
2023-01-04T10:50:56.515Z,3.25
2023-01-04T10:53:37.258Z,4.80
2023-01-04T10:56:25.969Z,3.55
2023-01-04T10:59:10.421Z,3.70
2023-01-04T11:01:51.562Z,2.80
2023-01-04T11:04:18.316Z,3.72
2023-01-04T11:06:51.678Z,3.50
2023-01-04T11:09:25.666Z,4.43
2023-01-04T11:11:57.445Z,4.22
2023-01-04T11:14:25.597Z,4.55
2023-01-04T11:16:59.134Z,3.83
2023-01-04T11:19:27.319Z,4.30
2023-01-04T11:22:06.006Z,5.40
2023-01-04T11:24:34.384Z,5.57
2023-01-04T11:27:14.542Z,5.40
2023-01-04T11:30:04.218Z,4.90
2023-01-04T11:32:52.263Z,6.30
2023-01-04T11:35:46.167Z,4.50
2023-01-04T11:38:14.391Z,5.88
2023-01-04T11:40:41.314Z,6.07
2023-01-04T11:43:20.927Z,6.22
2023-01-04T11:45:53.820Z,6.77
2023-01-04T11:48:31.449Z,5.93
2023-01-04T11:50:58.169Z,5.20
2023-01-04T11:53:29.793Z,7.97
2023-01-04T11:56:20.307Z,6.10
2023-01-04T11:59:12.337Z,8.57
2023-01-04T12:01:47.471Z,6.22
2023-01-04T12:04:21.017Z,7.75
2023-01-04T12:06:57.459Z,28.65
2023-01-04T12:09:24.198Z,9.77
2023-01-04T12:11:57.228Z,11.27
2023-01-04T12:14:32.475Z,16.05
2023-01-04T12:17:26.206Z,14.30
2023-01-04T12:19:56.743Z,15.82
2023-01-04T12:22:41.662Z,12.25
2023-01-04T12:25:25.501Z,25.33
2023-01-04T12:27:55.364Z,23.50
2023-01-04T12:30:46.621Z,27.05
2023-01-04T12:33:31.541Z,41.45
2023-01-04T12:36:04.885Z,7.25
2023-01-04T12:38:56.470Z,25.30
2023-01-04T12:41:45.166Z,11.77
2023-01-04T12:44:36.835Z,12.68
2023-01-04T12:47:37.561Z,6.53
2023-01-04T12:50:13.230Z,8.05
2023-01-04T12:55:36.723Z,6.55
2023-01-04T12:58:42.225Z,5.55
2023-01-04T13:01:26.449Z,5.32
2023-01-04T13:04:21.057Z,26.63
2023-01-04T13:06:47.933Z,25.50
2023-01-04T13:09:24.054Z,6.45
2023-01-04T13:12:05.621Z,10.75
2023-01-04T13:14:44.098Z,14.60
2023-01-04T13:17:16.604Z,18.90
2023-01-04T13:19:44.801Z,4.73
2023-01-04T13:22:23.434Z,6.03
2023-01-04T13:24:56.488Z,5.88
2023-01-04T13:27:23.902Z,4.00
2023-01-04T13:29:52.165Z,8.02
2023-01-04T13:32:28.104Z,5.50
2023-01-04T13:34:59.729Z,5.03
2023-01-04T13:37:29.973Z,3.80
2023-01-04T13:40:24.231Z,3.15
2023-01-04T13:42:56.243Z,7.45
2023-01-04T13:45:40.808Z,6.87
2023-01-04T13:48:14.474Z,6.93
2023-01-04T13:50:49.801Z,4.05
2023-01-04T13:53:24.728Z,27.77
2023-01-04T13:55:54.008Z,5.70
2023-01-04T13:58:23.339Z,3.00
2023-01-04T14:00:55.807Z,3.58
2023-01-04T14:03:40.233Z,3.13
2023-01-04T14:06:09.982Z,4.45
2023-01-04T14:08:41.203Z,3.92
2023-01-04T14:11:46.819Z,4.57
2023-01-04T14:14:22.119Z,4.03
2023-01-04T14:16:50.960Z,4.05
2023-01-04T14:19:41.487Z,2.97
2023-01-04T14:22:23.471Z,5.53
2023-01-04T14:25:11.292Z,3.87
2023-01-04T14:27:43.009Z,6.03
2023-01-04T14:30:18.787Z,4.57
2023-01-04T14:33:09.112Z,4.75
2023-01-04T14:35:38.345Z,4.18
2023-01-04T14:38:16.400Z,3.40
2023-01-04T14:40:43.753Z,2.90
2023-01-04T14:43:32.141Z,3.67
2023-01-04T14:45:58.826Z,3.95
2023-01-04T14:48:25.498Z,3.28
2023-01-04T14:50:52.509Z,2.73
2023-01-04T14:53:21.286Z,2.72
2023-01-04T14:55:47.997Z,5.22
2023-01-04T14:58:14.630Z,4.72
2023-01-04T15:00:41.533Z,3.03
2023-01-04T15:03:09.618Z,3.17
2023-01-04T15:05:38.025Z,2.38
2023-01-04T15:08:05.083Z,3.03
2023-01-04T15:10:32.057Z,3.60
2023-01-04T15:13:00.657Z,2.60
2023-01-04T15:15:27.481Z,3.17
2023-01-04T15:17:54.066Z,3.13
2023-01-04T15:20:20.728Z,4.40
2023-01-04T15:22:47.437Z,2.30
2023-01-04T15:25:14.108Z,3.15
2023-01-04T15:27:42.724Z,2.10
2023-01-04T15:30:11.847Z,2.30
2023-01-04T15:32:39.212Z,2.45
2023-01-04T15:35:06.838Z,4.97
2023-01-04T15:37:33.533Z,2.80
2023-01-04T15:40:02.663Z,2.17
2023-01-04T15:42:48.876Z,3.40
2023-01-04T15:45:15.777Z,2.10
2023-01-04T15:47:42.456Z,3.28
2023-01-04T15:50:09.307Z,4.05
2023-01-04T15:52:35.985Z,2.63
2023-01-04T15:55:02.997Z,3.40
2023-01-04T15:57:29.821Z,8.73
2023-01-04T15:59:56.440Z,3.47
2023-01-04T16:02:23.287Z,2.20
2023-01-04T16:04:50.487Z,2.83
2023-01-04T16:07:17.997Z,2.97
2023-01-04T16:09:44.788Z,2.47
2023-01-04T16:12:29.914Z,2.83
2023-01-04T16:14:56.646Z,2.08
2023-01-04T16:17:23.500Z,2.73
2023-01-04T16:19:50.143Z,3.08
2023-01-04T16:22:16.841Z,5.00
2023-01-04T16:27:35.477Z,5.43
2023-01-04T16:30:03.998Z,6.57
2023-01-04T16:32:31.222Z,5.75
2023-01-04T16:34:57.948Z,5.97
2023-01-04T16:37:28.526Z,4.22
2023-01-04T16:40:10.686Z,4.22
2023-01-04T16:42:38.735Z,2.67
2023-01-04T16:45:06.959Z,2.33
2023-01-04T16:47:39.992Z,2.38
2023-01-04T16:50:07.198Z,3.40
2023-01-04T16:52:33.891Z,3.33
2023-01-04T16:55:00.553Z,2.60
2023-01-04T16:57:27.184Z,2.17
2023-01-04T16:59:53.795Z,4.22
2023-01-04T17:02:20.709Z,3.05
2023-01-04T17:04:54.084Z,3.47
2023-01-04T17:07:21.621Z,4.40
2023-01-04T17:09:49.613Z,3.40
2023-01-04T17:12:46.183Z,3.15
2023-01-04T17:17:49.523Z,2.95
2023-01-04T17:20:16.371Z,5.97
2023-01-04T17:22:43.047Z,2.50
2023-01-04T17:25:09.804Z,2.72
2023-01-04T17:27:36.808Z,2.50
2023-01-04T17:30:04.208Z,3.55
2023-01-04T17:32:30.837Z,3.23
2023-01-04T17:34:58.644Z,3.13
2023-01-04T17:37:25.729Z,2.40
2023-01-04T17:39:52.449Z,3.35
2023-01-04T17:42:19.211Z,2.58
2023-01-04T17:44:48.156Z,9.70
2023-01-04T17:47:15.218Z,3.13
2023-01-04T17:49:41.907Z,2.60
2023-01-04T17:52:09.139Z,2.88
2023-01-04T17:54:36.540Z,4.63
2023-01-04T17:57:03.321Z,3.90
2023-01-04T17:59:29.997Z,3.25
2023-01-04T18:01:56.771Z,4.13
2023-01-04T18:04:23.518Z,3.72
2023-01-04T18:06:50.165Z,2.40
2023-01-04T18:09:20.212Z,2.63
2023-01-04T18:11:51.149Z,2.47
2023-01-04T18:14:17.888Z,5.63
2023-01-04T18:16:57.602Z,2.33
2023-01-04T18:19:26.466Z,4.28
2023-01-04T18:21:53.353Z,2.10
2023-01-04T18:24:37.400Z,2.53
2023-01-04T18:27:23.657Z,2.00
2023-01-04T18:29:52.876Z,3.00
2023-01-04T18:32:20.787Z,2.83
2023-01-04T18:34:47.585Z,2.10
2023-01-04T18:37:16.160Z,1.90
2023-01-04T18:39:43.250Z,3.55
2023-01-04T18:42:09.982Z,2.88
2023-01-04T18:44:42.472Z,12.52
2023-01-04T18:47:12.685Z,35.50
2023-01-04T18:49:39.529Z,19.42
2023-01-04T18:52:06.482Z,7.50
2023-01-04T18:54:33.119Z,10.40
2023-01-04T18:57:01.191Z,6.65
2023-01-04T18:59:31.418Z,35.70
2023-01-04T19:02:02.743Z,5.88
2023-01-04T19:04:32.595Z,5.32
2023-01-04T19:07:00.333Z,8.88
2023-01-04T19:09:26.983Z,17.88
2023-01-04T19:11:53.665Z,3.03
2023-01-04T19:14:20.479Z,3.88
2023-01-04T19:16:47.311Z,7.75
2023-01-04T19:19:14.003Z,10.07
2023-01-04T19:21:40.685Z,10.63
2023-01-04T19:24:07.529Z,3.17
2023-01-04T19:26:34.395Z,6.15
2023-01-04T19:29:01.010Z,6.15
2023-01-04T19:31:28.013Z,7.10
2023-01-04T19:33:54.929Z,4.05
2023-01-04T19:36:21.943Z,8.63
2023-01-04T19:38:48.584Z,4.43
2023-01-04T19:41:20.906Z,4.07
2023-01-04T19:43:48.007Z,2.85
2023-01-04T19:46:15.190Z,6.47
2023-01-04T19:48:42.352Z,5.93
2023-01-04T19:51:15.780Z,2.65
2023-01-04T19:53:44.434Z,10.82
2023-01-04T19:56:12.761Z,22.10
2023-01-04T19:58:39.749Z,25.45
2023-01-04T20:01:07.192Z,4.17
2023-01-04T20:03:34.117Z,13.02
2023-01-04T20:06:04.892Z,10.50
2023-01-04T20:08:32.335Z,3.83
2023-01-04T20:11:01.063Z,2.63
2023-01-04T20:13:29.798Z,8.33
2023-01-04T20:15:56.475Z,2.70
2023-01-04T20:18:26.406Z,2.28
2023-01-04T20:20:53.497Z,7.68
2023-01-04T20:23:24.034Z,5.65
2023-01-04T20:25:53.706Z,2.30
2023-01-04T20:28:22.414Z,7.45
2023-01-04T20:30:49.442Z,5.28
2023-01-04T20:33:16.146Z,5.82
2023-01-04T20:35:44.529Z,6.30
2023-01-04T20:38:11.992Z,2.60
2023-01-04T20:40:39.445Z,3.50
2023-01-04T20:43:25.078Z,13.63
2023-01-04T20:45:51.899Z,12.07
2023-01-04T20:48:18.892Z,4.10
2023-01-04T20:50:45.651Z,5.17
2023-01-04T20:53:13.577Z,12.38
2023-01-04T20:55:41.906Z,9.00
2023-01-04T20:58:09.611Z,16.17
2023-01-04T21:00:37.157Z,3.08
2023-01-04T21:03:05.858Z,2.93
2023-01-04T21:05:41.353Z,9.93
2023-01-04T21:08:08.511Z,3.65
2023-01-04T21:10:36.126Z,3.00
2023-01-04T21:13:03.888Z,17.67
2023-01-04T21:15:30.874Z,18.10
2023-01-04T21:17:57.809Z,17.05
2023-01-04T21:20:24.818Z,12.40
2023-01-04T21:22:51.486Z,10.50
2023-01-04T21:25:18.464Z,4.97
2023-01-04T21:27:45.179Z,13.63
2023-01-04T21:30:12.740Z,5.88
2023-01-04T21:32:39.427Z,2.35
2023-01-04T21:35:06.639Z,8.73
2023-01-04T21:37:33.432Z,3.35
2023-01-04T21:40:00.132Z,1.97
2023-01-04T21:42:26.880Z,9.73
2023-01-04T21:44:53.571Z,4.45
2023-01-04T21:47:20.184Z,3.90
2023-01-04T21:49:46.928Z,3.67
2023-01-04T21:52:13.578Z,1.90
2023-01-04T21:54:40.266Z,5.68
2023-01-04T21:57:09.671Z,2.72
2023-01-04T21:59:36.510Z,4.45
2023-01-04T22:02:03.616Z,2.20
2023-01-04T22:04:31.258Z,3.17
2023-01-04T22:06:58.375Z,16.42
2023-01-04T22:09:25.609Z,5.45
2023-01-04T22:11:52.353Z,2.55
2023-01-04T22:14:19.207Z,3.25
2023-01-04T22:16:45.976Z,2.93
2023-01-04T22:19:14.347Z,3.47
2023-01-04T22:21:42.373Z,3.05
2023-01-04T22:24:13.971Z,5.78
2023-01-04T22:26:41.811Z,4.45
2023-01-04T22:29:09.709Z,3.20
2023-01-04T22:31:36.922Z,4.97
2023-01-04T22:34:04.064Z,3.20
2023-01-04T22:36:30.701Z,5.00
2023-01-04T22:38:58.415Z,4.15
2023-01-04T22:41:27.617Z,3.63
2023-01-04T22:43:59.683Z,2.28
2023-01-04T22:46:28.118Z,2.20
2023-01-04T22:48:55.549Z,2.85
2023-01-04T22:51:24.129Z,1.90
2023-01-04T22:53:55.349Z,2.43
2023-01-04T22:56:22.989Z,2.53
2023-01-04T22:58:55.792Z,2.60
2023-01-04T23:01:25.651Z,2.15
2023-01-04T23:03:53.048Z,2.08
2023-01-04T23:06:20.673Z,1.60
2023-01-04T23:08:48.620Z,1.88
2023-01-04T23:11:18.067Z,1.92
2023-01-04T23:13:45.039Z,1.83
2023-01-04T23:16:14.305Z,2.55
2023-01-04T23:18:41.043Z,2.10
2023-01-04T23:21:07.825Z,2.22
2023-01-04T23:23:34.877Z,1.60
2023-01-04T23:26:15.449Z,2.08
2023-01-04T23:28:42.978Z,1.40
2023-01-04T23:31:11.804Z,2.37
2023-01-04T23:33:38.769Z,2.58
2023-01-04T23:36:07.063Z,1.60
2023-01-04T23:38:33.798Z,2.10
2023-01-04T23:41:00.484Z,1.65
2023-01-04T23:43:27.189Z,1.90
2023-01-04T23:45:53.909Z,1.85
2023-01-04T23:48:20.546Z,1.70
2023-01-04T23:50:57.382Z,1.77
2023-01-04T23:53:24.672Z,1.67
2023-01-04T23:55:59.333Z,2.10
2023-01-04T23:58:29.084Z,1.90
